الصفحة الرئيسية
METAR-TAF:

METAR-TAF

مطار :

مطار دمشق الدولي

دمشق, سوريا

دائرة عرض: 33-25N, خط طول: 036-31E, ارتفاع: 608 متر

مراقبة الطقس الحالي

تاريخ ووقت الإصدار 12 دقيقة قبل الساعة 11:00UTC
ريح 5 عقدة من الشرق
درجة الحرارة 13°درجة مئوية
الرطوبة 51%
ضغط 1026 hPa
الرؤية 10 كم أو أكثر
الغيوم لا تقل 1500 م ولا وجود لمزنة ركامية السحاب الأسود

METAR: OSDI 141100Z 09005KT CAVOK 13/03 Q1026

زمن: 13:12 (11:12 UTC)

توقعات

التوقعات صالحة من14 الساعة 06 UTC إلى 15 الساعة 12 UTC
ريح 3 عقدةمن اتجاهات متغيرة
أصبح
من 14 الساعة 08 UTC إلى 14 الساعة 10 UTC
ريح 10 عقدة من الجنوب الغربي
الرؤية: 8000 متر
غيوم قليلة على ارتفاع 3000 قدم
غيوم متفرقة على ارتفاع 10000 قدم

TAF: OSDI 1406/1512 VRB03KT 3000BR BECMG 1408/1410 22010KT 8000 FEW030 SCT100

أرصاد الطقس والتوقعات من أكثر من 4000 مطار (تقارير الطقس للمطار METAR والتنبؤ بالطقس بالمطارTAF).

المحطات المتاحة هي النقط الصفراء والحمراء على الخريطة.

حرك المؤشر فوق النقطة لمعرفة اسم المحطة.

ثم انقر لمعرفة أرصاد وتوقعات الطقس.

لتغيير الخارطة: اضغط على الأزرار الخضراء مع رمز الصليب الأسود للتكبير. على الزر الأخضر مع شرطة للتصغير، أو على الأسهم الخضراء للخرائط المجاورة.


METAR-TAF: